sensor_id;sensor_type;location;lat;lon;timestamp;temperature;humidity
25582;DHT22;13462;50.764;4.332;2023-08-06T00:02:13;15.10;99.90
25582;DHT22;13462;50.764;4.332;2023-08-06T00:04:39;15.00;99.90
25582;DHT22;13462;50.764;4.332;2023-08-06T00:07:05;15.10;99.90
25582;DHT22;13462;50.764;4.332;2023-08-06T00:09:30;15.10;99.90
25582;DHT22;13462;50.764;4.332;2023-08-06T00:11:56;15.10;99.90
25582;DHT22;13462;50.764;4.332;2023-08-06T00:14:21;15.20;99.90
25582;DHT22;13462;50.764;4.332;2023-08-06T00:16:47;15.10;99.90
25582;DHT22;13462;50.764;4.332;2023-08-06T00:19:13;15.10;99.90
25582;DHT22;13462;50.764;4.332;2023-08-06T00:21:38;15.20;99.90
25582;DHT22;13462;50.764;4.332;2023-08-06T00:24:04;15.20;99.90
25582;DHT22;13462;50.764;4.332;2023-08-06T00:26:30;15.20;99.90
25582;DHT22;13462;50.764;4.332;2023-08-06T00:28:55;15.10;99.90
25582;DHT22;13462;50.764;4.332;2023-08-06T00:31:21;15.10;99.90
25582;DHT22;13462;50.764;4.332;2023-08-06T00:33:46;15.10;99.90
25582;DHT22;13462;50.764;4.332;2023-08-06T00:36:12;15.10;99.90
25582;DHT22;13462;50.764;4.332;2023-08-06T00:38:37;15.10;99.90
25582;DHT22;13462;50.764;4.332;2023-08-06T00:41:03;15.20;99.90
25582;DHT22;13462;50.764;4.332;2023-08-06T00:43:29;15.10;99.90
25582;DHT22;13462;50.764;4.332;2023-08-06T00:45:55;15.20;99.90
25582;DHT22;13462;50.764;4.332;2023-08-06T00:48:21;15.20;99.90
25582;DHT22;13462;50.764;4.332;2023-08-06T00:50:47;15.30;99.90
25582;DHT22;13462;50.764;4.332;2023-08-06T00:53:13;15.30;99.90
25582;DHT22;13462;50.764;4.332;2023-08-06T00:55:39;15.20;99.90
25582;DHT22;13462;50.764;4.332;2023-08-06T00:58:05;15.10;99.90
25582;DHT22;13462;50.764;4.332;2023-08-06T01:00:31;15.20;99.90
25582;DHT22;13462;50.764;4.332;2023-08-06T01:02:57;15.20;99.90
25582;DHT22;13462;50.764;4.332;2023-08-06T01:05:23;15.20;99.90
25582;DHT22;13462;50.764;4.332;2023-08-06T01:08:19;15.30;99.90
25582;DHT22;13462;50.764;4.332;2023-08-06T01:13:44;15.30;99.90
25582;DHT22;13462;50.764;4.332;2023-08-06T01:16:17;15.30;99.90
25582;DHT22;13462;50.764;4.332;2023-08-06T01:18:43;15.30;99.90
25582;DHT22;13462;50.764;4.332;2023-08-06T01:21:13;15.20;99.90
25582;DHT22;13462;50.764;4.332;2023-08-06T01:23:39;15.20;99.90
25582;DHT22;13462;50.764;4.332;2023-08-06T01:29:28;15.30;99.90
25582;DHT22;13462;50.764;4.332;2023-08-06T01:31:57;15.30;99.90
25582;DHT22;13462;50.764;4.332;2023-08-06T01:34:25;15.30;99.90
25582;DHT22;13462;50.764;4.332;2023-08-06T01:36:53;15.30;99.90
25582;DHT22;13462;50.764;4.332;2023-08-06T01:39:20;15.20;99.90
25582;DHT22;13462;50.764;4.332;2023-08-06T01:41:48;15.20;99.90
25582;DHT22;13462;50.764;4.332;2023-08-06T01:44:15;15.30;99.90
25582;DHT22;13462;50.764;4.332;2023-08-06T01:46:41;15.40;99.90
25582;DHT22;13462;50.764;4.332;2023-08-06T01:49:06;15.40;99.90
25582;DHT22;13462;50.764;4.332;2023-08-06T01:51:32;15.30;99.90
25582;DHT22;13462;50.764;4.332;2023-08-06T01:53:58;15.30;99.90
25582;DHT22;13462;50.764;4.332;2023-08-06T01:56:23;15.20;99.90
25582;DHT22;13462;50.764;4.332;2023-08-06T01:58:49;15.20;99.90
25582;DHT22;13462;50.764;4.332;2023-08-06T02:01:15;15.30;99.90
25582;DHT22;13462;50.764;4.332;2023-08-06T02:03:40;15.20;99.90
25582;DHT22;13462;50.764;4.332;2023-08-06T02:06:06;15.30;99.90
25582;DHT22;13462;50.764;4.332;2023-08-06T02:08:32;15.20;99.90
25582;DHT22;13462;50.764;4.332;2023-08-06T02:10:57;15.30;99.90
25582;DHT22;13462;50.764;4.332;2023-08-06T02:13:23;15.30;99.90
25582;DHT22;13462;50.764;4.332;2023-08-06T02:15:49;15.30;99.90
25582;DHT22;13462;50.764;4.332;2023-08-06T02:18:15;15.30;99.90
25582;DHT22;13462;50.764;4.332;2023-08-06T02:20:42;15.40;99.90
25582;DHT22;13462;50.764;4.332;2023-08-06T02:23:08;15.30;99.90
25582;DHT22;13462;50.764;4.332;2023-08-06T02:25:34;15.30;99.90
25582;DHT22;13462;50.764;4.332;2023-08-06T02:28:00;15.30;99.90
25582;DHT22;13462;50.764;4.332;2023-08-06T02:30:25;15.30;99.90
25582;DHT22;13462;50.764;4.332;2023-08-06T02:32:51;15.40;99.90
25582;DHT22;13462;50.764;4.332;2023-08-06T02:35:16;15.30;99.90
25582;DHT22;13462;50.764;4.332;2023-08-06T02:37:42;15.30;99.90
25582;DHT22;13462;50.764;4.332;2023-08-06T02:40:08;15.40;99.90
25582;DHT22;13462;50.764;4.332;2023-08-06T02:42:34;15.40;99.90
25582;DHT22;13462;50.764;4.332;2023-08-06T02:44:59;15.50;99.90
25582;DHT22;13462;50.764;4.332;2023-08-06T02:47:25;15.50;99.90
25582;DHT22;13462;50.764;4.332;2023-08-06T02:49:50;15.10;99.90
25582;DHT22;13462;50.764;4.332;2023-08-06T02:52:16;15.10;99.90
25582;DHT22;13462;50.764;4.332;2023-08-06T02:54:42;15.00;99.90
25582;DHT22;13462;50.764;4.332;2023-08-06T02:57:08;15.10;99.90
25582;DHT22;13462;50.764;4.332;2023-08-06T02:59:33;15.20;99.90
25582;DHT22;13462;50.764;4.332;2023-08-06T03:01:59;15.30;99.90
25582;DHT22;13462;50.764;4.332;2023-08-06T03:04:25;15.30;99.90
25582;DHT22;13462;50.764;4.332;2023-08-06T03:06:50;15.40;99.90
25582;DHT22;13462;50.764;4.332;2023-08-06T03:09:17;15.40;99.90
25582;DHT22;13462;50.764;4.332;2023-08-06T03:11:42;15.50;99.90
25582;DHT22;13462;50.764;4.332;2023-08-06T03:14:08;15.50;99.90
25582;DHT22;13462;50.764;4.332;2023-08-06T03:16:34;15.40;99.90
25582;DHT22;13462;50.764;4.332;2023-08-06T03:19:00;15.40;99.90
25582;DHT22;13462;50.764;4.332;2023-08-06T03:21:25;15.30;99.90
25582;DHT22;13462;50.764;4.332;2023-08-06T03:23:51;15.30;99.90
25582;DHT22;13462;50.764;4.332;2023-08-06T03:26:17;15.30;99.90
25582;DHT22;13462;50.764;4.332;2023-08-06T03:28:42;15.40;99.90
25582;DHT22;13462;50.764;4.332;2023-08-06T03:31:08;15.40;99.90
25582;DHT22;13462;50.764;4.332;2023-08-06T03:33:34;15.40;99.90
25582;DHT22;13462;50.764;4.332;2023-08-06T03:36:00;15.30;99.90
25582;DHT22;13462;50.764;4.332;2023-08-06T03:38:26;15.30;99.90
25582;DHT22;13462;50.764;4.332;2023-08-06T03:40:51;15.30;99.90
25582;DHT22;13462;50.764;4.332;2023-08-06T03:43:17;15.30;99.90
25582;DHT22;13462;50.764;4.332;2023-08-06T03:45:42;15.30;99.90
25582;DHT22;13462;50.764;4.332;2023-08-06T03:48:08;15.20;99.90
25582;DHT22;13462;50.764;4.332;2023-08-06T03:50:34;15.00;99.90
25582;DHT22;13462;50.764;4.332;2023-08-06T03:53:00;14.90;99.90
25582;DHT22;13462;50.764;4.332;2023-08-06T03:55:25;14.90;99.90
25582;DHT22;13462;50.764;4.332;2023-08-06T03:57:51;14.80;99.90
25582;DHT22;13462;50.764;4.332;2023-08-06T04:00:17;14.60;99.90
25582;DHT22;13462;50.764;4.332;2023-08-06T04:02:43;14.50;99.90
25582;DHT22;13462;50.764;4.332;2023-08-06T04:05:09;14.40;99.90
25582;DHT22;13462;50.764;4.332;2023-08-06T04:07:34;14.30;99.90
25582;DHT22;13462;50.764;4.332;2023-08-06T04:10:02;14.30;99.90
25582;DHT22;13462;50.764;4.332;2023-08-06T04:12:28;14.30;99.90
25582;DHT22;13462;50.764;4.332;2023-08-06T04:14:55;14.20;99.90
25582;DHT22;13462;50.764;4.332;2023-08-06T04:17:21;14.20;99.90
25582;DHT22;13462;50.764;4.332;2023-08-06T04:19:48;14.30;99.90
25582;DHT22;13462;50.764;4.332;2023-08-06T04:22:14;14.40;99.90
25582;DHT22;13462;50.764;4.332;2023-08-06T04:24:40;14.30;99.90
25582;DHT22;13462;50.764;4.332;2023-08-06T04:27:05;14.40;99.90
25582;DHT22;13462;50.764;4.332;2023-08-06T04:29:31;14.30;99.90
25582;DHT22;13462;50.764;4.332;2023-08-06T04:31:58;14.30;99.90
25582;DHT22;13462;50.764;4.332;2023-08-06T04:34:23;14.30;99.90
25582;DHT22;13462;50.764;4.332;2023-08-06T04:36:49;14.30;99.90
25582;DHT22;13462;50.764;4.332;2023-08-06T04:39:14;14.30;99.90
25582;DHT22;13462;50.764;4.332;2023-08-06T04:41:40;14.20;99.90
25582;DHT22;13462;50.764;4.332;2023-08-06T04:44:06;14.30;99.90
25582;DHT22;13462;50.764;4.332;2023-08-06T04:46:31;14.30;99.90
25582;DHT22;13462;50.764;4.332;2023-08-06T04:48:57;14.30;99.90
25582;DHT22;13462;50.764;4.332;2023-08-06T04:51:22;14.30;99.90
25582;DHT22;13462;50.764;4.332;2023-08-06T04:53:48;14.30;99.90
25582;DHT22;13462;50.764;4.332;2023-08-06T04:56:13;14.20;99.90
25582;DHT22;13462;50.764;4.332;2023-08-06T04:58:39;14.20;99.90
25582;DHT22;13462;50.764;4.332;2023-08-06T05:01:05;14.20;99.90
25582;DHT22;13462;50.764;4.332;2023-08-06T05:03:30;14.20;99.90
25582;DHT22;13462;50.764;4.332;2023-08-06T05:05:56;14.20;99.90
25582;DHT22;13462;50.764;4.332;2023-08-06T05:08:21;14.20;99.90
25582;DHT22;13462;50.764;4.332;2023-08-06T05:10:47;14.30;99.90
25582;DHT22;13462;50.764;4.332;2023-08-06T05:13:13;14.30;99.90
25582;DHT22;13462;50.764;4.332;2023-08-06T05:15:39;14.30;99.90
25582;DHT22;13462;50.764;4.332;2023-08-06T05:18:08;14.30;99.90
25582;DHT22;13462;50.764;4.332;2023-08-06T05:20:36;14.30;99.90
25582;DHT22;13462;50.764;4.332;2023-08-06T05:23:02;14.30;99.90
25582;DHT22;13462;50.764;4.332;2023-08-06T05:25:28;14.30;99.90
25582;DHT22;13462;50.764;4.332;2023-08-06T05:27:53;14.30;99.90
25582;DHT22;13462;50.764;4.332;2023-08-06T05:30:19;14.40;99.90
25582;DHT22;13462;50.764;4.332;2023-08-06T05:32:44;14.40;99.90
25582;DHT22;13462;50.764;4.332;2023-08-06T05:35:10;14.40;99.90
25582;DHT22;13462;50.764;4.332;2023-08-06T05:37:36;14.40;99.90
25582;DHT22;13462;50.764;4.332;2023-08-06T05:40:01;14.40;99.90
25582;DHT22;13462;50.764;4.332;2023-08-06T05:42:28;14.40;99.90
25582;DHT22;13462;50.764;4.332;2023-08-06T05:44:54;14.40;99.90
25582;DHT22;13462;50.764;4.332;2023-08-06T05:47:20;14.50;99.90
25582;DHT22;13462;50.764;4.332;2023-08-06T05:49:45;14.50;99.90
25582;DHT22;13462;50.764;4.332;2023-08-06T05:52:11;14.60;99.90
25582;DHT22;13462;50.764;4.332;2023-08-06T05:54:37;14.70;99.90
25582;DHT22;13462;50.764;4.332;2023-08-06T05:57:02;14.50;99.90
25582;DHT22;13462;50.764;4.332;2023-08-06T05:59:28;14.40;99.90
25582;DHT22;13462;50.764;4.332;2023-08-06T06:01:54;14.40;99.90
25582;DHT22;13462;50.764;4.332;2023-08-06T06:04:21;14.50;99.90
25582;DHT22;13462;50.764;4.332;2023-08-06T06:06:46;14.50;99.90
25582;DHT22;13462;50.764;4.332;2023-08-06T06:09:12;14.50;99.90
25582;DHT22;13462;50.764;4.332;2023-08-06T06:11:37;14.70;99.90
25582;DHT22;13462;50.764;4.332;2023-08-06T06:14:03;14.70;99.90
25582;DHT22;13462;50.764;4.332;2023-08-06T06:16:29;14.70;99.90
25582;DHT22;13462;50.764;4.332;2023-08-06T06:18:54;14.80;99.90
25582;DHT22;13462;50.764;4.332;2023-08-06T06:21:20;14.80;99.90
25582;DHT22;13462;50.764;4.332;2023-08-06T06:23:46;14.90;99.90
25582;DHT22;13462;50.764;4.332;2023-08-06T06:26:12;14.90;99.90
25582;DHT22;13462;50.764;4.332;2023-08-06T06:28:38;15.00;99.90
25582;DHT22;13462;50.764;4.332;2023-08-06T06:31:03;15.00;99.90
25582;DHT22;13462;50.764;4.332;2023-08-06T06:33:29;15.10;99.90
25582;DHT22;13462;50.764;4.332;2023-08-06T06:35:55;15.10;99.90
25582;DHT22;13462;50.764;4.332;2023-08-06T06:38:21;15.00;99.90
25582;DHT22;13462;50.764;4.332;2023-08-06T06:40:58;14.90;99.90
25582;DHT22;13462;50.764;4.332;2023-08-06T06:43:24;14.70;99.90
25582;DHT22;13462;50.764;4.332;2023-08-06T06:45:55;14.80;99.90
25582;DHT22;13462;50.764;4.332;2023-08-06T06:48:21;14.80;99.90
25582;DHT22;13462;50.764;4.332;2023-08-06T06:50:47;14.80;99.90
25582;DHT22;13462;50.764;4.332;2023-08-06T06:53:14;14.80;99.90
25582;DHT22;13462;50.764;4.332;2023-08-06T06:55:39;14.90;99.90
25582;DHT22;13462;50.764;4.332;2023-08-06T06:58:05;15.10;99.90
25582;DHT22;13462;50.764;4.332;2023-08-06T07:00:31;15.20;99.90
25582;DHT22;13462;50.764;4.332;2023-08-06T07:02:56;15.20;99.90
25582;DHT22;13462;50.764;4.332;2023-08-06T07:05:22;15.20;99.90
25582;DHT22;13462;50.764;4.332;2023-08-06T07:07:47;15.10;99.90
25582;DHT22;13462;50.764;4.332;2023-08-06T07:10:13;15.00;99.90
25582;DHT22;13462;50.764;4.332;2023-08-06T07:12:39;15.00;99.90
25582;DHT22;13462;50.764;4.332;2023-08-06T07:15:06;14.80;99.90
25582;DHT22;13462;50.764;4.332;2023-08-06T07:17:32;14.90;99.90
25582;DHT22;13462;50.764;4.332;2023-08-06T07:19:58;15.00;99.90
25582;DHT22;13462;50.764;4.332;2023-08-06T07:22:23;15.10;99.90
25582;DHT22;13462;50.764;4.332;2023-08-06T07:24:49;15.20;99.90
25582;DHT22;13462;50.764;4.332;2023-08-06T07:27:15;15.20;99.90
25582;DHT22;13462;50.764;4.332;2023-08-06T07:29:40;15.20;99.90
25582;DHT22;13462;50.764;4.332;2023-08-06T07:32:07;15.10;99.90
25582;DHT22;13462;50.764;4.332;2023-08-06T07:34:33;14.90;99.90
25582;DHT22;13462;50.764;4.332;2023-08-06T07:36:58;14.90;99.90
25582;DHT22;13462;50.764;4.332;2023-08-06T07:39:24;14.80;99.90
25582;DHT22;13462;50.764;4.332;2023-08-06T07:41:50;15.00;99.90
25582;DHT22;13462;50.764;4.332;2023-08-06T07:44:15;15.00;99.90
25582;DHT22;13462;50.764;4.332;2023-08-06T07:46:41;15.10;99.90
25582;DHT22;13462;50.764;4.332;2023-08-06T07:49:08;15.10;99.90
25582;DHT22;13462;50.764;4.332;2023-08-06T07:51:33;15.30;99.90
25582;DHT22;13462;50.764;4.332;2023-08-06T07:53:59;15.50;99.90
25582;DHT22;13462;50.764;4.332;2023-08-06T07:56:25;15.60;99.90
25582;DHT22;13462;50.764;4.332;2023-08-06T07:58:50;15.70;99.90
25582;DHT22;13462;50.764;4.332;2023-08-06T08:01:16;15.70;99.90
25582;DHT22;13462;50.764;4.332;2023-08-06T08:03:41;15.70;99.90
25582;DHT22;13462;50.764;4.332;2023-08-06T08:06:07;15.90;99.90
25582;DHT22;13462;50.764;4.332;2023-08-06T08:08:32;16.10;99.90
25582;DHT22;13462;50.764;4.332;2023-08-06T08:10:58;16.10;99.90
25582;DHT22;13462;50.764;4.332;2023-08-06T08:13:26;16.10;99.90
25582;DHT22;13462;50.764;4.332;2023-08-06T08:15:57;16.00;99.90
25582;DHT22;13462;50.764;4.332;2023-08-06T08:18:23;16.10;99.90
25582;DHT22;13462;50.764;4.332;2023-08-06T08:20:49;16.20;99.90
25582;DHT22;13462;50.764;4.332;2023-08-06T08:23:14;16.00;99.90
25582;DHT22;13462;50.764;4.332;2023-08-06T08:25:40;15.80;99.90
25582;DHT22;13462;50.764;4.332;2023-08-06T08:28:06;15.40;99.90
25582;DHT22;13462;50.764;4.332;2023-08-06T08:30:32;15.50;99.90
25582;DHT22;13462;50.764;4.332;2023-08-06T08:32:58;15.40;99.90
25582;DHT22;13462;50.764;4.332;2023-08-06T08:35:23;15.40;99.90
25582;DHT22;13462;50.764;4.332;2023-08-06T08:37:49;15.40;99.90
25582;DHT22;13462;50.764;4.332;2023-08-06T08:40:15;15.40;99.90
25582;DHT22;13462;50.764;4.332;2023-08-06T08:42:42;15.50;99.90
25582;DHT22;13462;50.764;4.332;2023-08-06T08:45:17;15.50;99.90
25582;DHT22;13462;50.764;4.332;2023-08-06T08:47:46;15.50;99.90
25582;DHT22;13462;50.764;4.332;2023-08-06T08:50:13;15.50;99.90
25582;DHT22;13462;50.764;4.332;2023-08-06T08:52:40;15.70;99.90
25582;DHT22;13462;50.764;4.332;2023-08-06T08:55:07;15.80;99.90
25582;DHT22;13462;50.764;4.332;2023-08-06T08:57:33;15.80;99.90
25582;DHT22;13462;50.764;4.332;2023-08-06T08:59:59;15.90;99.90
25582;DHT22;13462;50.764;4.332;2023-08-06T09:02:28;15.80;99.90
25582;DHT22;13462;50.764;4.332;2023-08-06T09:04:56;15.40;99.90
25582;DHT22;13462;50.764;4.332;2023-08-06T09:07:23;15.40;99.90
25582;DHT22;13462;50.764;4.332;2023-08-06T09:09:49;15.30;99.90
25582;DHT22;13462;50.764;4.332;2023-08-06T09:12:17;15.50;99.90
25582;DHT22;13462;50.764;4.332;2023-08-06T09:14:43;15.50;99.90
25582;DHT22;13462;50.764;4.332;2023-08-06T09:17:09;15.40;99.90
25582;DHT22;13462;50.764;4.332;2023-08-06T09:19:36;15.30;99.90
25582;DHT22;13462;50.764;4.332;2023-08-06T09:22:02;15.20;99.90
25582;DHT22;13462;50.764;4.332;2023-08-06T09:24:28;15.20;99.90
25582;DHT22;13462;50.764;4.332;2023-08-06T09:26:54;15.10;99.90
25582;DHT22;13462;50.764;4.332;2023-08-06T09:29:20;15.10;99.90
25582;DHT22;13462;50.764;4.332;2023-08-06T09:31:50;15.10;99.90
25582;DHT22;13462;50.764;4.332;2023-08-06T09:34:19;15.10;99.90
25582;DHT22;13462;50.764;4.332;2023-08-06T09:36:50;14.90;99.90
25582;DHT22;13462;50.764;4.332;2023-08-06T09:39:18;14.80;99.90
25582;DHT22;13462;50.764;4.332;2023-08-06T09:41:44;14.80;99.90
25582;DHT22;13462;50.764;4.332;2023-08-06T09:44:17;14.90;99.90
25582;DHT22;13462;50.764;4.332;2023-08-06T09:46:50;15.00;99.90
25582;DHT22;13462;50.764;4.332;2023-08-06T09:49:18;15.00;99.90
25582;DHT22;13462;50.764;4.332;2023-08-06T09:51:45;14.80;99.90
25582;DHT22;13462;50.764;4.332;2023-08-06T09:54:15;14.50;99.90
25582;DHT22;13462;50.764;4.332;2023-08-06T09:56:42;14.30;99.90
25582;DHT22;13462;50.764;4.332;2023-08-06T09:59:08;14.40;99.90
25582;DHT22;13462;50.764;4.332;2023-08-06T10:01:35;14.40;99.90
25582;DHT22;13462;50.764;4.332;2023-08-06T10:04:02;14.40;99.90
25582;DHT22;13462;50.764;4.332;2023-08-06T10:06:28;14.50;99.90
25582;DHT22;13462;50.764;4.332;2023-08-06T10:08:54;14.40;99.90
25582;DHT22;13462;50.764;4.332;2023-08-06T10:11:22;14.60;99.90
25582;DHT22;13462;50.764;4.332;2023-08-06T10:13:51;14.60;99.90
25582;DHT22;13462;50.764;4.332;2023-08-06T10:16:19;14.60;99.90
25582;DHT22;13462;50.764;4.332;2023-08-06T10:18:47;14.70;99.90
25582;DHT22;13462;50.764;4.332;2023-08-06T10:21:14;14.60;99.90
25582;DHT22;13462;50.764;4.332;2023-08-06T10:23:41;14.60;99.90
25582;DHT22;13462;50.764;4.332;2023-08-06T10:26:07;14.70;99.90
25582;DHT22;13462;50.764;4.332;2023-08-06T10:28:37;14.90;99.90
25582;DHT22;13462;50.764;4.332;2023-08-06T10:31:04;15.00;99.90
25582;DHT22;13462;50.764;4.332;2023-08-06T10:33:45;14.90;99.90
25582;DHT22;13462;50.764;4.332;2023-08-06T10:36:12;15.00;99.90
25582;DHT22;13462;50.764;4.332;2023-08-06T10:38:45;15.10;99.90
25582;DHT22;13462;50.764;4.332;2023-08-06T10:41:27;15.10;99.90
25582;DHT22;13462;50.764;4.332;2023-08-06T10:44:09;15.00;99.90
25582;DHT22;13462;50.764;4.332;2023-08-06T10:46:35;15.00;99.90
25582;DHT22;13462;50.764;4.332;2023-08-06T10:49:01;15.10;99.90
25582;DHT22;13462;50.764;4.332;2023-08-06T10:51:27;15.10;99.90
25582;DHT22;13462;50.764;4.332;2023-08-06T10:53:53;15.30;99.90
25582;DHT22;13462;50.764;4.332;2023-08-06T10:56:23;15.50;99.90
25582;DHT22;13462;50.764;4.332;2023-08-06T10:58:53;15.60;99.90
25582;DHT22;13462;50.764;4.332;2023-08-06T11:01:18;15.70;99.90
25582;DHT22;13462;50.764;4.332;2023-08-06T11:03:46;15.90;99.90
25582;DHT22;13462;50.764;4.332;2023-08-06T11:06:20;16.00;99.90
25582;DHT22;13462;50.764;4.332;2023-08-06T11:08:54;16.00;99.90
25582;DHT22;13462;50.764;4.332;2023-08-06T11:11:20;15.80;99.90
25582;DHT22;13462;50.764;4.332;2023-08-06T11:13:47;15.80;99.90
25582;DHT22;13462;50.764;4.332;2023-08-06T11:16:18;15.80;99.90
25582;DHT22;13462;50.764;4.332;2023-08-06T11:18:44;15.70;99.90
25582;DHT22;13462;50.764;4.332;2023-08-06T11:21:10;15.70;99.90
25582;DHT22;13462;50.764;4.332;2023-08-06T11:23:37;15.80;99.90
25582;DHT22;13462;50.764;4.332;2023-08-06T11:26:03;15.90;99.90
25582;DHT22;13462;50.764;4.332;2023-08-06T11:28:28;16.00;99.90
25582;DHT22;13462;50.764;4.332;2023-08-06T11:30:54;16.10;99.90
25582;DHT22;13462;50.764;4.332;2023-08-06T11:33:27;16.30;99.90
25582;DHT22;13462;50.764;4.332;2023-08-06T11:35:54;16.40;99.90
25582;DHT22;13462;50.764;4.332;2023-08-06T11:38:20;16.30;99.90
25582;DHT22;13462;50.764;4.332;2023-08-06T11:40:47;16.30;99.90
25582;DHT22;13462;50.764;4.332;2023-08-06T11:43:13;16.40;99.90
25582;DHT22;13462;50.764;4.332;2023-08-06T11:45:40;16.50;99.90
25582;DHT22;13462;50.764;4.332;2023-08-06T11:48:07;16.50;99.90
25582;DHT22;13462;50.764;4.332;2023-08-06T11:50:37;16.40;99.90
25582;DHT22;13462;50.764;4.332;2023-08-06T11:53:06;16.40;99.90
25582;DHT22;13462;50.764;4.332;2023-08-06T11:55:32;16.40;99.90
25582;DHT22;13462;50.764;4.332;2023-08-06T11:58:02;16.30;99.90
25582;DHT22;13462;50.764;4.332;2023-08-06T12:00:29;16.30;99.90
25582;DHT22;13462;50.764;4.332;2023-08-06T12:02:54;16.30;99.90
25582;DHT22;13462;50.764;4.332;2023-08-06T12:05:29;16.20;99.90
25582;DHT22;13462;50.764;4.332;2023-08-06T12:08:00;16.20;99.90
25582;DHT22;13462;50.764;4.332;2023-08-06T12:10:27;15.90;99.90
25582;DHT22;13462;50.764;4.332;2023-08-06T12:12:54;15.80;99.90
25582;DHT22;13462;50.764;4.332;2023-08-06T12:15:20;15.90;99.90
25582;DHT22;13462;50.764;4.332;2023-08-06T12:17:46;15.70;99.90
25582;DHT22;13462;50.764;4.332;2023-08-06T12:20:12;15.80;99.90
25582;DHT22;13462;50.764;4.332;2023-08-06T12:22:38;15.80;99.90
25582;DHT22;13462;50.764;4.332;2023-08-06T12:25:06;15.70;99.90
25582;DHT22;13462;50.764;4.332;2023-08-06T12:27:43;16.00;99.90
25582;DHT22;13462;50.764;4.332;2023-08-06T12:30:11;15.90;99.90
25582;DHT22;13462;50.764;4.332;2023-08-06T12:32:38;16.10;99.90
25582;DHT22;13462;50.764;4.332;2023-08-06T12:35:04;16.10;99.90
25582;DHT22;13462;50.764;4.332;2023-08-06T12:37:30;16.20;99.90
25582;DHT22;13462;50.764;4.332;2023-08-06T12:39:56;16.20;99.90
25582;DHT22;13462;50.764;4.332;2023-08-06T12:42:22;16.30;99.90
25582;DHT22;13462;50.764;4.332;2023-08-06T12:44:50;16.10;99.90
25582;DHT22;13462;50.764;4.332;2023-08-06T12:47:17;15.80;99.90
25582;DHT22;13462;50.764;4.332;2023-08-06T12:49:42;15.70;99.90
25582;DHT22;13462;50.764;4.332;2023-08-06T12:52:08;15.20;99.90
25582;DHT22;13462;50.764;4.332;2023-08-06T12:54:35;15.20;99.90
25582;DHT22;13462;50.764;4.332;2023-08-06T12:57:02;15.30;99.90
25582;DHT22;13462;50.764;4.332;2023-08-06T12:59:28;15.40;99.90
25582;DHT22;13462;50.764;4.332;2023-08-06T13:01:54;15.60;99.90
25582;DHT22;13462;50.764;4.332;2023-08-06T13:04:20;15.70;99.90
25582;DHT22;13462;50.764;4.332;2023-08-06T13:06:45;15.70;99.90
25582;DHT22;13462;50.764;4.332;2023-08-06T13:09:12;15.80;99.90
25582;DHT22;13462;50.764;4.332;2023-08-06T13:11:39;15.70;99.90
25582;DHT22;13462;50.764;4.332;2023-08-06T13:14:07;15.60;99.90
25582;DHT22;13462;50.764;4.332;2023-08-06T13:16:34;15.30;99.90
25582;DHT22;13462;50.764;4.332;2023-08-06T13:19:00;15.30;99.90
25582;DHT22;13462;50.764;4.332;2023-08-06T13:21:58;15.40;99.90
25582;DHT22;13462;50.764;4.332;2023-08-06T13:24:19;15.50;99.90
25582;DHT22;13462;50.764;4.332;2023-08-06T13:26:45;15.60;99.90
25582;DHT22;13462;50.764;4.332;2023-08-06T13:29:11;15.50;99.90
25582;DHT22;13462;50.764;4.332;2023-08-06T13:31:37;15.50;99.90
25582;DHT22;13462;50.764;4.332;2023-08-06T13:34:02;15.70;99.90
25582;DHT22;13462;50.764;4.332;2023-08-06T13:36:28;15.60;99.90
25582;DHT22;13462;50.764;4.332;2023-08-06T13:38:54;15.60;99.90
25582;DHT22;13462;50.764;4.332;2023-08-06T13:41:21;15.60;99.90
25582;DHT22;13462;50.764;4.332;2023-08-06T13:43:47;15.60;99.90
25582;DHT22;13462;50.764;4.332;2023-08-06T13:46:13;15.50;99.90
25582;DHT22;13462;50.764;4.332;2023-08-06T13:48:42;15.50;99.90
25582;DHT22;13462;50.764;4.332;2023-08-06T13:51:09;15.50;99.90
25582;DHT22;13462;50.764;4.332;2023-08-06T13:53:35;15.40;99.90
25582;DHT22;13462;50.764;4.332;2023-08-06T13:56:00;15.40;99.90
25582;DHT22;13462;50.764;4.332;2023-08-06T13:58:26;15.60;99.90
25582;DHT22;13462;50.764;4.332;2023-08-06T14:00:53;15.60;99.90
25582;DHT22;13462;50.764;4.332;2023-08-06T14:03:20;15.50;99.90
25582;DHT22;13462;50.764;4.332;2023-08-06T14:05:45;15.40;99.90
25582;DHT22;13462;50.764;4.332;2023-08-06T14:08:11;15.20;99.90
25582;DHT22;13462;50.764;4.332;2023-08-06T14:10:37;15.10;99.90
25582;DHT22;13462;50.764;4.332;2023-08-06T14:13:02;15.00;99.90
25582;DHT22;13462;50.764;4.332;2023-08-06T14:15:28;15.00;99.90
25582;DHT22;13462;50.764;4.332;2023-08-06T14:17:54;15.10;99.90
25582;DHT22;13462;50.764;4.332;2023-08-06T14:20:19;15.20;99.90
25582;DHT22;13462;50.764;4.332;2023-08-06T14:22:45;15.30;99.90
25582;DHT22;13462;50.764;4.332;2023-08-06T14:25:10;15.40;99.90
25582;DHT22;13462;50.764;4.332;2023-08-06T14:27:36;15.50;99.90
25582;DHT22;13462;50.764;4.332;2023-08-06T14:30:07;15.60;99.90
25582;DHT22;13462;50.764;4.332;2023-08-06T14:32:33;15.60;99.90
25582;DHT22;13462;50.764;4.332;2023-08-06T14:34:59;15.70;99.90
25582;DHT22;13462;50.764;4.332;2023-08-06T14:37:24;15.80;99.90
25582;DHT22;13462;50.764;4.332;2023-08-06T14:39:50;15.70;99.90
25582;DHT22;13462;50.764;4.332;2023-08-06T14:42:16;15.70;99.90
25582;DHT22;13462;50.764;4.332;2023-08-06T14:44:42;15.70;99.90
25582;DHT22;13462;50.764;4.332;2023-08-06T14:47:08;15.70;99.90
25582;DHT22;13462;50.764;4.332;2023-08-06T14:49:33;15.80;99.90
25582;DHT22;13462;50.764;4.332;2023-08-06T14:51:59;15.80;99.90
25582;DHT22;13462;50.764;4.332;2023-08-06T14:54:26;15.70;99.90
25582;DHT22;13462;50.764;4.332;2023-08-06T14:56:52;15.70;99.90
25582;DHT22;13462;50.764;4.332;2023-08-06T14:59:17;15.60;99.90
25582;DHT22;13462;50.764;4.332;2023-08-06T15:01:43;15.70;99.90
25582;DHT22;13462;50.764;4.332;2023-08-06T15:04:09;15.80;99.90
25582;DHT22;13462;50.764;4.332;2023-08-06T15:06:34;15.60;99.90
25582;DHT22;13462;50.764;4.332;2023-08-06T15:09:00;15.70;99.90
25582;DHT22;13462;50.764;4.332;2023-08-06T15:11:26;15.80;99.90
25582;DHT22;13462;50.764;4.332;2023-08-06T15:13:52;16.00;99.90
25582;DHT22;13462;50.764;4.332;2023-08-06T15:16:18;16.00;99.90
25582;DHT22;13462;50.764;4.332;2023-08-06T15:18:43;16.10;99.90
25582;DHT22;13462;50.764;4.332;2023-08-06T15:21:09;16.30;99.90
25582;DHT22;13462;50.764;4.332;2023-08-06T15:23:35;16.40;99.90
25582;DHT22;13462;50.764;4.332;2023-08-06T15:26:02;16.30;99.90
25582;DHT22;13462;50.764;4.332;2023-08-06T15:28:28;16.40;99.90
25582;DHT22;13462;50.764;4.332;2023-08-06T15:30:54;16.40;99.90
25582;DHT22;13462;50.764;4.332;2023-08-06T15:33:21;16.20;99.90